createdAt,value
2018-07-04T00:02:44.344Z,100839.00
2018-07-04T00:05:30.468Z,100836.00
2018-07-04T00:08:16.800Z,100838.00
2018-07-04T00:11:02.870Z,100835.00
2018-07-04T00:13:49.017Z,100850.00
2018-07-04T00:16:35.169Z,100844.00
2018-07-04T00:19:21.358Z,100846.00
2018-07-04T00:22:01.642Z,100845.00
2018-07-04T00:24:47.818Z,100849.00
2018-07-04T00:27:33.998Z,100848.00
2018-07-04T00:30:20.167Z,100853.00
2018-07-04T00:33:06.344Z,100852.00
2018-07-04T00:35:52.434Z,100855.00
2018-07-04T00:38:38.590Z,100844.00
2018-07-04T00:41:25.752Z,100845.00
2018-07-04T00:44:11.877Z,100846.00
2018-07-04T00:46:58.106Z,100853.00
2018-07-04T00:49:44.285Z,100848.00
2018-07-04T00:52:30.262Z,100812.00
2018-07-04T00:55:16.406Z,100834.00
2018-07-04T00:58:02.724Z,100836.00
2018-07-04T01:00:48.936Z,100845.00
2018-07-04T01:03:35.158Z,100838.00
2018-07-04T01:06:21.320Z,100852.00
2018-07-04T01:09:07.724Z,100855.00
2018-07-04T01:11:53.919Z,100852.00
2018-07-04T01:14:40.080Z,100854.00
2018-07-04T01:17:26.234Z,100854.00
2018-07-04T01:20:12.568Z,100847.00
2018-07-04T01:22:58.661Z,100845.00
2018-07-04T01:25:44.834Z,100844.00
2018-07-04T01:28:36.488Z,100844.00
2018-07-04T01:31:22.702Z,100848.00
2018-07-04T01:34:09.808Z,100835.00
2018-07-04T01:36:56.172Z,100839.00
2018-07-04T01:39:42.580Z,100834.00
2018-07-04T01:42:28.771Z,100832.00
2018-07-04T01:45:14.990Z,100829.00
2018-07-04T01:48:01.295Z,100844.00
2018-07-04T01:50:47.912Z,100837.00
2018-07-04T01:53:33.797Z,100829.00
2018-07-04T01:56:19.830Z,100831.00
2018-07-04T01:59:06.158Z,100828.00
2018-07-04T02:01:52.601Z,100831.00
2018-07-04T02:04:38.881Z,100824.00
2018-07-04T02:07:25.179Z,100833.00
2018-07-04T02:10:11.244Z,100827.00
2018-07-04T02:12:57.578Z,100833.00
2018-07-04T02:15:43.914Z,100838.00
2018-07-04T02:18:30.116Z,100832.00
2018-07-04T02:21:16.274Z,100833.00
2018-07-04T02:24:02.617Z,100833.00
2018-07-04T02:26:48.766Z,100839.00
2018-07-04T02:29:34.815Z,100839.00
2018-07-04T02:32:21.036Z,100849.00
2018-07-04T02:35:07.250Z,100829.00
2018-07-04T02:37:53.594Z,100835.00
2018-07-04T02:40:39.631Z,100832.00
2018-07-04T02:43:25.824Z,100838.00
2018-07-04T02:46:12.042Z,100831.00
2018-07-04T02:48:58.792Z,100834.00
2018-07-04T02:51:45.099Z,100826.00
2018-07-04T02:54:31.253Z,100818.00
2018-07-04T02:57:17.505Z,100826.00
2018-07-04T03:00:03.769Z,100828.00
2018-07-04T03:02:50.076Z,100825.00
2018-07-04T03:05:36.391Z,100822.00
2018-07-04T03:08:22.720Z,100822.00
2018-07-04T03:11:09.045Z,100825.00
2018-07-04T03:13:55.160Z,100828.00
2018-07-04T03:16:41.367Z,100832.00
2018-07-04T03:19:27.525Z,100821.00
2018-07-04T03:22:13.702Z,100825.00
2018-07-04T03:24:59.661Z,100823.00
2018-07-04T03:27:45.662Z,100817.00
2018-07-04T03:30:31.854Z,100817.00
2018-07-04T03:33:18.084Z,100816.00
2018-07-04T03:36:04.353Z,100818.00
2018-07-04T03:38:50.435Z,100818.00
2018-07-04T03:41:36.489Z,100817.00
2018-07-04T03:44:16.758Z,100816.00
2018-07-04T03:46:56.996Z,100800.00
2018-07-04T03:49:43.391Z,100821.00
2018-07-04T03:52:29.531Z,100818.00
2018-07-04T03:55:15.669Z,100811.00
2018-07-04T03:58:01.918Z,100816.00
2018-07-04T04:00:47.919Z,100813.00
2018-07-04T04:03:33.878Z,100819.00
2018-07-04T04:06:20.020Z,100818.00
2018-07-04T04:09:06.296Z,100824.00
2018-07-04T04:11:52.679Z,100823.00
2018-07-04T04:14:39.170Z,100823.00
2018-07-04T04:17:25.109Z,100818.00
2018-07-04T04:20:11.438Z,100818.00
2018-07-04T04:22:57.811Z,100819.00
2018-07-04T04:25:44.022Z,100815.00
2018-07-04T04:28:30.466Z,100817.00
2018-07-04T04:31:16.821Z,100819.00
2018-07-04T04:34:03.007Z,100824.00
2018-07-04T04:36:49.191Z,100822.00
2018-07-04T04:39:35.432Z,100827.00
2018-07-04T04:42:21.610Z,100824.00
2018-07-04T04:45:07.696Z,100818.00
2018-07-04T04:47:54.038Z,100832.00
2018-07-04T04:50:40.318Z,100819.00
2018-07-04T04:53:26.529Z,100816.00
2018-07-04T04:56:12.547Z,100820.00
2018-07-04T04:58:58.703Z,100827.00
2018-07-04T05:01:45.066Z,100824.00
2018-07-04T05:04:31.687Z,100825.00
2018-07-04T05:07:17.760Z,100820.00
2018-07-04T05:10:03.962Z,100818.00
2018-07-04T05:12:50.273Z,100827.00
2018-07-04T05:15:36.429Z,100820.00
2018-07-04T05:18:22.508Z,100821.00
2018-07-04T05:21:08.695Z,100828.00
2018-07-04T05:23:54.988Z,100819.00
2018-07-04T05:26:41.149Z,100820.00
2018-07-04T05:29:27.373Z,100812.00
2018-07-04T05:32:13.627Z,100817.00
2018-07-04T05:34:59.869Z,100830.00
2018-07-04T05:37:46.038Z,100822.00
2018-07-04T05:40:32.359Z,100825.00
2018-07-04T05:43:18.658Z,100828.00
2018-07-04T05:46:04.836Z,100827.00
2018-07-04T05:48:51.000Z,100829.00
2018-07-04T05:51:37.178Z,100829.00
2018-07-04T05:54:23.509Z,100822.00
2018-07-04T05:57:09.829Z,100827.00
2018-07-04T05:59:56.153Z,100827.00
2018-07-04T06:02:42.505Z,100829.00
2018-07-04T06:05:28.746Z,100831.00
2018-07-04T06:08:14.858Z,100816.00
2018-07-04T06:11:01.251Z,100813.00
2018-07-04T06:13:47.510Z,100811.00
2018-07-04T06:16:33.969Z,100820.00
2018-07-04T06:19:20.062Z,100811.00
2018-07-04T06:22:06.164Z,100815.00
2018-07-04T06:24:52.273Z,100815.00
2018-07-04T06:27:38.440Z,100814.00
2018-07-04T06:30:24.698Z,100815.00
2018-07-04T06:33:10.879Z,100818.00
2018-07-04T06:35:57.093Z,100815.00
2018-07-04T06:38:24.838Z,100817.00
2018-07-04T06:40:52.459Z,100812.00
2018-07-04T06:43:20.141Z,100801.00
2018-07-04T06:45:47.911Z,100802.00
2018-07-04T06:48:15.590Z,100800.00
2018-07-04T06:50:43.214Z,100802.00
2018-07-04T06:53:10.967Z,100799.00
2018-07-04T06:55:45.487Z,100796.00
2018-07-04T06:58:13.904Z,100802.00
2018-07-04T07:00:41.863Z,100808.00
2018-07-04T07:03:27.862Z,100803.00
2018-07-04T07:06:13.999Z,100804.00
2018-07-04T07:09:00.249Z,100803.00
2018-07-04T07:11:46.599Z,100802.00
2018-07-04T07:14:33.011Z,100804.00
2018-07-04T07:17:19.307Z,100800.00
2018-07-04T07:20:05.646Z,100797.00
2018-07-04T07:22:52.154Z,100797.00
2018-07-04T07:25:38.309Z,100802.00
2018-07-04T07:28:24.690Z,100797.00
2018-07-04T07:31:10.865Z,100789.00
2018-07-04T07:33:57.124Z,100795.00
2018-07-04T07:36:43.248Z,100794.00
2018-07-04T07:39:29.731Z,100795.00
2018-07-04T07:42:16.036Z,100795.00
2018-07-04T07:45:02.276Z,100790.00
2018-07-04T07:47:48.411Z,100783.00
2018-07-04T07:50:34.454Z,100787.00
2018-07-04T07:53:20.702Z,100783.00
2018-07-04T07:56:07.580Z,100782.00
2018-07-04T07:58:53.597Z,100781.00
2018-07-04T08:01:39.770Z,100777.00
2018-07-04T08:04:25.985Z,100778.00
2018-07-04T08:07:12.085Z,100782.00
2018-07-04T08:09:58.264Z,100769.00
2018-07-04T08:12:44.560Z,100773.00
2018-07-04T08:15:30.591Z,100772.00
2018-07-04T08:18:16.854Z,100772.00
2018-07-04T08:21:03.304Z,100762.00
2018-07-04T08:23:49.397Z,100766.00
2018-07-04T08:26:35.385Z,100768.00
2018-07-04T08:29:21.582Z,100763.00
2018-07-04T08:32:08.101Z,100760.00
2018-07-04T08:34:54.169Z,100763.00
2018-07-04T08:37:40.580Z,100758.00
2018-07-04T08:40:26.929Z,100764.00
2018-07-04T08:43:13.300Z,100762.00
2018-07-04T08:46:01.429Z,100753.00
2018-07-04T08:48:47.813Z,100750.00
2018-07-04T08:51:33.902Z,100755.00
2018-07-04T08:54:14.185Z,100750.00
2018-07-04T08:57:00.670Z,100746.00
2018-07-04T08:59:47.376Z,100748.00
2018-07-04T09:02:33.336Z,100750.00
2018-07-04T09:05:19.364Z,100747.00
2018-07-04T09:08:05.656Z,100744.00
2018-07-04T09:10:51.806Z,100749.00
2018-07-04T09:13:38.187Z,100745.00
2018-07-04T09:16:24.578Z,100740.00
2018-07-04T09:19:11.516Z,100741.00
2018-07-04T09:21:57.924Z,100741.00
2018-07-04T09:24:44.059Z,100734.00
2018-07-04T09:27:30.321Z,100736.00
2018-07-04T09:30:16.509Z,100733.00
2018-07-04T09:33:02.990Z,100731.00
2018-07-04T09:35:49.172Z,100731.00
2018-07-04T09:38:35.344Z,100731.00
2018-07-04T09:41:21.825Z,100726.00
2018-07-04T09:44:08.393Z,100716.00
2018-07-04T09:46:54.557Z,100725.00
2018-07-04T09:49:41.046Z,100719.00
2018-07-04T09:52:27.411Z,100714.00
2018-07-04T09:55:13.895Z,100727.00
2018-07-04T09:58:00.094Z,100718.00
2018-07-04T10:00:51.678Z,100719.00
2018-07-04T10:03:38.253Z,100718.00
2018-07-04T10:06:24.629Z,100725.00
2018-07-04T10:09:10.686Z,100716.00
2018-07-04T10:11:56.738Z,100724.00
2018-07-04T10:14:43.032Z,100716.00
2018-07-04T10:17:29.097Z,100704.00
2018-07-04T10:20:15.084Z,100705.00
2018-07-04T10:23:01.265Z,100699.00
2018-07-04T10:25:47.403Z,100684.00
2018-07-04T10:28:33.608Z,100704.00
2018-07-04T10:31:13.656Z,100695.00
2018-07-04T10:33:59.781Z,100686.00
2018-07-04T10:36:46.151Z,100689.00
2018-07-04T10:39:32.390Z,100695.00
2018-07-04T10:42:18.720Z,100693.00
2018-07-04T10:45:04.888Z,100685.00
2018-07-04T10:47:51.048Z,100691.00
2018-07-04T10:50:37.328Z,100688.00
2018-07-04T10:53:23.407Z,100684.00
2018-07-04T10:56:09.483Z,100679.00
2018-07-04T10:58:55.584Z,100685.00
2018-07-04T11:01:41.855Z,100682.00
2018-07-04T11:04:28.205Z,100671.00
2018-07-04T11:07:14.513Z,100668.00
2018-07-04T11:10:00.719Z,100664.00
2018-07-04T11:12:47.094Z,100664.00
2018-07-04T11:15:33.232Z,100662.00
2018-07-04T11:18:19.343Z,100670.00
2018-07-04T11:21:06.613Z,100664.00
2018-07-04T11:23:52.824Z,100669.00
2018-07-04T11:26:39.088Z,100672.00
2018-07-04T11:29:25.331Z,100670.00
2018-07-04T11:32:11.454Z,100665.00
2018-07-04T11:34:57.514Z,100661.00
2018-07-04T11:37:43.624Z,100658.00
2018-07-04T11:40:31.536Z,100658.00
2018-07-04T11:43:17.737Z,100655.00
2018-07-04T11:45:58.250Z,100649.00
2018-07-04T11:48:25.919Z,100647.00
2018-07-04T11:50:54.410Z,100650.00
2018-07-04T11:53:22.451Z,100654.00
2018-07-04T11:55:50.084Z,100648.00
2018-07-04T11:58:17.778Z,100654.00
2018-07-04T12:00:45.762Z,100647.00
2018-07-04T12:03:15.865Z,100650.00
2018-07-04T12:06:02.331Z,100650.00
2018-07-04T12:08:30.060Z,100641.00
2018-07-04T12:10:58.201Z,100648.00
2018-07-04T12:13:26.908Z,100647.00
2018-07-04T12:15:54.764Z,100651.00
2018-07-04T12:18:22.366Z,100655.00
2018-07-04T12:20:50.105Z,100654.00
2018-07-04T12:23:17.715Z,100649.00
2018-07-04T12:25:45.596Z,100649.00
2018-07-04T12:28:13.231Z,100644.00
2018-07-04T12:30:40.908Z,100640.00
2018-07-04T12:33:08.539Z,100641.00
2018-07-04T12:35:36.744Z,100640.00
2018-07-04T12:38:04.470Z,100649.00
2018-07-04T12:40:32.183Z,100650.00
2018-07-04T12:43:05.878Z,100615.00
2018-07-04T12:45:39.457Z,100641.00
2018-07-04T12:48:01.380Z,100633.00
2018-07-04T12:50:31.433Z,100629.00
2018-07-04T12:52:59.058Z,100636.00
2018-07-04T12:55:45.450Z,100632.00
2018-07-04T12:58:31.799Z,100620.00
2018-07-04T13:01:17.838Z,100629.00
2018-07-04T13:04:03.970Z,100618.00
2018-07-04T13:06:50.097Z,100629.00
2018-07-04T13:09:36.367Z,100612.00
2018-07-04T13:12:22.754Z,100624.00
2018-07-04T13:15:09.175Z,100609.00
2018-07-04T13:17:49.448Z,100618.00
2018-07-04T13:20:35.716Z,100604.00
2018-07-04T13:23:21.868Z,100609.00
2018-07-04T13:26:08.170Z,100602.00
2018-07-04T13:28:54.345Z,100598.00
2018-07-04T13:31:40.527Z,100591.00
2018-07-04T13:34:26.532Z,100589.00
2018-07-04T13:37:12.949Z,100589.00
2018-07-04T13:39:59.067Z,100597.00
2018-07-04T13:42:45.412Z,100582.00
2018-07-04T13:45:25.407Z,100579.00
2018-07-04T13:48:11.435Z,100574.00
2018-07-04T13:50:57.586Z,100579.00
2018-07-04T13:53:43.659Z,100558.00
2018-07-04T13:56:29.853Z,100561.00
2018-07-04T13:59:16.014Z,100566.00
2018-07-04T14:01:56.179Z,100562.00
2018-07-04T14:04:42.309Z,100558.00
2018-07-04T14:07:28.410Z,100562.00
2018-07-04T14:10:14.852Z,100556.00
2018-07-04T14:13:00.962Z,100551.00
2018-07-04T14:15:47.386Z,100550.00
2018-07-04T14:18:33.670Z,100551.00
2018-07-04T14:21:20.117Z,100547.00
2018-07-04T14:24:06.608Z,100546.00
2018-07-04T14:26:53.131Z,100550.00
2018-07-04T14:29:39.391Z,100551.00
2018-07-04T14:32:26.387Z,100550.00
2018-07-04T14:35:12.643Z,100553.00
2018-07-04T14:37:58.846Z,100544.00
2018-07-04T14:40:45.080Z,100553.00
2018-07-04T14:43:31.267Z,100551.00
2018-07-04T14:46:17.432Z,100550.00
2018-07-04T14:49:03.740Z,100546.00
2018-07-04T14:51:50.186Z,100551.00
2018-07-04T14:54:36.353Z,100552.00
2018-07-04T14:57:22.512Z,100558.00
2018-07-04T15:00:08.806Z,100546.00
2018-07-04T15:02:55.076Z,100549.00
2018-07-04T15:05:47.866Z,100549.00
2018-07-04T15:09:09.512Z,100548.00
2018-07-04T15:11:55.785Z,100549.00
2018-07-04T15:14:42.076Z,100543.00
2018-07-04T15:17:28.532Z,100534.00
2018-07-04T15:20:14.691Z,100532.00
2018-07-04T15:23:01.057Z,100532.00
2018-07-04T15:25:48.331Z,100523.00
2018-07-04T15:28:34.485Z,100534.00
2018-07-04T15:31:20.535Z,100523.00
2018-07-04T15:34:07.178Z,100529.00
2018-07-04T15:36:53.345Z,100520.00
2018-07-04T15:39:43.102Z,100524.00
2018-07-04T15:42:29.219Z,100521.00
2018-07-04T15:45:15.549Z,100522.00
2018-07-04T15:48:01.696Z,100518.00
2018-07-04T15:50:47.856Z,100514.00
2018-07-04T15:53:34.104Z,100514.00
2018-07-04T15:56:20.262Z,100519.00
2018-07-04T15:59:06.618Z,100522.00
2018-07-04T16:01:52.801Z,100514.00
2018-07-04T16:04:40.274Z,100518.00
2018-07-04T16:07:26.610Z,100515.00
2018-07-04T16:10:13.128Z,100515.00
2018-07-04T16:12:59.203Z,100511.00
2018-07-04T16:15:45.698Z,100518.00
2018-07-04T16:18:31.815Z,100513.00
2018-07-04T16:21:18.341Z,100508.00
2018-07-04T16:24:04.611Z,100507.00
2018-07-04T16:26:50.906Z,100470.00
2018-07-04T16:29:37.019Z,100501.00
2018-07-04T16:32:23.272Z,100501.00
2018-07-04T16:35:09.417Z,100498.00
2018-07-04T16:37:55.517Z,100503.00
2018-07-04T16:40:41.823Z,100503.00
2018-07-04T16:43:27.970Z,100498.00
2018-07-04T16:46:14.242Z,100495.00
2018-07-04T16:49:03.259Z,100496.00
2018-07-04T16:51:50.399Z,100491.00
2018-07-04T16:54:36.506Z,100498.00
2018-07-04T16:57:22.572Z,100496.00
2018-07-04T17:00:08.668Z,100486.00
2018-07-04T17:02:55.645Z,100496.00
2018-07-04T17:05:41.692Z,100487.00
2018-07-04T17:08:27.702Z,100495.00
2018-07-04T17:11:14.923Z,100494.00
2018-07-04T17:14:04.530Z,100500.00
2018-07-04T17:16:50.736Z,100502.00
2018-07-04T17:19:37.234Z,100505.00
2018-07-04T17:22:23.481Z,100497.00
2018-07-04T17:25:10.010Z,100502.00
2018-07-04T17:27:56.317Z,100505.00
2018-07-04T17:30:42.727Z,100505.00
2018-07-04T17:33:28.960Z,100507.00
2018-07-04T17:36:15.369Z,100504.00
2018-07-04T17:39:01.562Z,100502.00
2018-07-04T17:41:47.769Z,100507.00
2018-07-04T17:44:33.880Z,100501.00
2018-07-04T17:47:22.600Z,100499.00
2018-07-04T17:50:08.728Z,100500.00
2018-07-04T17:52:55.295Z,100503.00
2018-07-04T17:55:41.502Z,100498.00
2018-07-04T17:58:27.989Z,100503.00
2018-07-04T18:01:14.241Z,100506.00
2018-07-04T18:04:00.879Z,100498.00
2018-07-04T18:06:47.251Z,100507.00
2018-07-04T18:09:33.433Z,100509.00
2018-07-04T18:12:19.737Z,100507.00
2018-07-04T18:15:05.692Z,100508.00
2018-07-04T18:17:51.872Z,100518.00
2018-07-04T18:20:38.253Z,100506.00
2018-07-04T18:23:24.422Z,100509.00
2018-07-04T18:26:10.610Z,100507.00
2018-07-04T18:28:56.852Z,100503.00
2018-07-04T18:31:43.193Z,100500.00
2018-07-04T18:34:29.848Z,100505.00
2018-07-04T18:37:15.938Z,100503.00
2018-07-04T18:40:02.156Z,100501.00
2018-07-04T18:42:48.432Z,100504.00
2018-07-04T18:45:35.477Z,100507.00
2018-07-04T18:48:21.619Z,100507.00
2018-07-04T18:51:08.496Z,100513.00
2018-07-04T18:53:54.787Z,100513.00
2018-07-04T18:56:40.968Z,100520.00
2018-07-04T18:59:27.166Z,100513.00
2018-07-04T19:02:13.605Z,100520.00
2018-07-04T19:05:00.154Z,100520.00
2018-07-04T19:07:46.474Z,100521.00
2018-07-04T19:10:32.718Z,100512.00
2018-07-04T19:13:18.914Z,100507.00
2018-07-04T19:16:05.123Z,100509.00
2018-07-04T19:18:51.466Z,100502.00
2018-07-04T19:21:37.871Z,100500.00
2018-07-04T19:24:23.920Z,100496.00
2018-07-04T19:27:10.061Z,100493.00
2018-07-04T19:29:50.149Z,100492.00
2018-07-04T19:32:36.300Z,100505.00
2018-07-04T19:35:22.540Z,100504.00
2018-07-04T19:38:08.737Z,100505.00
2018-07-04T19:40:54.974Z,100505.00
2018-07-04T19:43:41.443Z,100508.00
2018-07-04T19:46:27.849Z,100494.00
2018-07-04T19:49:14.469Z,100497.00
2018-07-04T19:52:00.863Z,100503.00
2018-07-04T19:54:47.282Z,100505.00
2018-07-04T19:57:33.620Z,100490.00
2018-07-04T20:00:20.029Z,100500.00
2018-07-04T20:03:06.255Z,100493.00
2018-07-04T20:05:52.443Z,100498.00
2018-07-04T20:08:38.655Z,100495.00
2018-07-04T20:11:24.882Z,100493.00
2018-07-04T20:14:11.739Z,100500.00
2018-07-04T20:16:57.913Z,100493.00
2018-07-04T20:19:37.978Z,100488.00
2018-07-04T20:22:25.786Z,100501.00
2018-07-04T20:25:12.273Z,100510.00
2018-07-04T20:27:58.407Z,100505.00
2018-07-04T20:30:44.448Z,100506.00
2018-07-04T20:33:30.600Z,100501.00
2018-07-04T20:36:16.586Z,100507.00
2018-07-04T20:39:02.681Z,100506.00
2018-07-04T20:41:49.088Z,100509.00
2018-07-04T20:44:36.084Z,100510.00
2018-07-04T20:47:22.475Z,100514.00
2018-07-04T20:50:08.683Z,100521.00
2018-07-04T20:52:54.945Z,100522.00
2018-07-04T20:55:41.379Z,100525.00
2018-07-04T20:58:27.538Z,100520.00
2018-07-04T21:01:13.788Z,100533.00
2018-07-04T21:03:59.832Z,100527.00
2018-07-04T21:06:45.944Z,100536.00
2018-07-04T21:09:32.027Z,100536.00
2018-07-04T21:12:18.153Z,100535.00
2018-07-04T21:15:04.574Z,100542.00
2018-07-04T21:17:50.907Z,100539.00
2018-07-04T21:20:31.179Z,100536.00
2018-07-04T21:23:17.486Z,100527.00
2018-07-04T21:26:03.658Z,100531.00
2018-07-04T21:28:49.844Z,100530.00
2018-07-04T21:31:36.008Z,100531.00
2018-07-04T21:34:22.321Z,100527.00
2018-07-04T21:37:08.811Z,100527.00
2018-07-04T21:39:55.175Z,100530.00
2018-07-04T21:42:41.541Z,100534.00
2018-07-04T21:45:27.789Z,100530.00
2018-07-04T21:48:13.956Z,100542.00
2018-07-04T21:51:00.191Z,100542.00
2018-07-04T21:53:46.796Z,100540.00
2018-07-04T21:56:33.237Z,100543.00
2018-07-04T21:59:19.563Z,100530.00
2018-07-04T22:02:05.794Z,100535.00
2018-07-04T22:04:52.007Z,100538.00
2018-07-04T22:07:38.410Z,100537.00
2018-07-04T22:10:24.771Z,100538.00
2018-07-04T22:13:10.975Z,100538.00
2018-07-04T22:15:57.222Z,100562.00
2018-07-04T22:18:43.466Z,100551.00
2018-07-04T22:21:29.564Z,100545.00
2018-07-04T22:24:15.952Z,100541.00
2018-07-04T22:27:02.236Z,100527.00
2018-07-04T22:29:49.453Z,100541.00
2018-07-04T22:32:35.511Z,100530.00
2018-07-04T22:35:21.477Z,100544.00
2018-07-04T22:38:07.736Z,100540.00
2018-07-04T22:40:53.970Z,100532.00
2018-07-04T22:43:41.000Z,100542.00
2018-07-04T22:46:27.422Z,100543.00
2018-07-04T22:49:14.182Z,100543.00
2018-07-04T22:52:00.382Z,100533.00
2018-07-04T22:54:46.664Z,100534.00
2018-07-04T22:57:32.676Z,100523.00
2018-07-04T23:00:18.901Z,100529.00
2018-07-04T23:03:04.977Z,100514.00
2018-07-04T23:05:51.483Z,100511.00
2018-07-04T23:08:37.819Z,100517.00
2018-07-04T23:11:24.320Z,100514.00
2018-07-04T23:14:10.563Z,100516.00
2018-07-04T23:16:56.887Z,100512.00
2018-07-04T23:19:42.894Z,100509.00
2018-07-04T23:22:29.116Z,100513.00
2018-07-04T23:25:15.386Z,100514.00
2018-07-04T23:28:01.610Z,100522.00
2018-07-04T23:30:47.725Z,100516.00
2018-07-04T23:33:33.891Z,100520.00
2018-07-04T23:36:20.016Z,100525.00
2018-07-04T23:39:06.238Z,100534.00
2018-07-04T23:41:52.363Z,100524.00
2018-07-04T23:44:38.521Z,100529.00
2018-07-04T23:47:24.802Z,100527.00
2018-07-04T23:50:10.792Z,100532.00
2018-07-04T23:52:56.967Z,100538.00
2018-07-04T23:55:43.068Z,100535.00
2018-07-04T23:58:29.303Z,100537.00
